Meteo Giornale » Osservazioni meteo Germania » Friedrichshafen

ore: 18:50 - Osservazioni Meteo Friedrichshafen
Lat. 47° 40' N Lon. 9° 31' E Alt. 416 metri s.l.m.

sereno Europe/Berlin

21 °C

Sereno

Temp. 24 Ore

14 °C

22 °C

Nord

5.5 Km/h

Dew point 12 °C

Umidità 56 %

Visibilità  10 Km

Il sole sorge alle ore 05:21

Il sole tramonta alle ore 21:24

Data e Ora Cielo e Fenomeni T °C DP °C Um. % Pres. hPa Vis. km Vento km/h
Oggi h: 18:50 sereno Sereno 21 12 56 1022 10 N 5.5
Oggi h: 18:20 poco_nuvoloso Poco Nuvoloso 20 13 64 1021 10 N 3.7
Oggi h: 17:50 molto_nuvoloso Molto Nuvoloso 20 12 59 1022 10 E/NE 7.4
Oggi h: 17:20 nuvoloso Nuvoloso 21 12 56 1022 10 N 7.4
Oggi h: 16:50 poco_nuvoloso Poco Nuvoloso 20 12 59 1022 10 N/NO 7.4
Oggi h: 16:20 nuvoloso Nuvoloso 21 14 64 1022 10 N 7.4
Oggi h: 15:50 molto_nuvoloso Molto Nuvoloso 18 13 72 1022 10 N 5.5
Oggi h: 15:20 molto_nuvoloso Molto Nuvoloso 18 13 72 1022 10 N 7.4
Oggi h: 14:50 poco_nuvoloso Poco Nuvoloso 20 13 64 1022 10 S/SO 11.1
Oggi h: 14:20 nuvoloso Nuvoloso 20 13 64 1022 10 S/SO 9.3
Oggi h: 13:50 nuvoloso Nuvoloso 19 13 68 1022 10 O 7.4
Oggi h: 13:20 nuvoloso Nuvoloso 18 12 67 1023 10 N 5.5
Oggi h: 12:50 nuvoloso Nuvoloso 18 13 72 1023 10 N 5.5
Oggi h: 12:20 nuvoloso Nuvoloso 17 13 77 1023 10 N 3.7
Oggi h: 11:50 coperto Coperto 16 13 82 1023 10 SO 9.3
Oggi h: 11:20 coperto Coperto 16 13 82 1023 10 O/SO 11.1
Oggi h: 10:50 coperto Coperto 15 13 87 1023 10 O/SO 7.4
Oggi h: 10:20 coperto Coperto 15 13 87 1023 10 O 9.3
Oggi h: 09:50 coperto Coperto 15 13 87 1023 10 O/SO 13
Oggi h: 09:20 molto_nuvoloso Molto Nuvoloso 15 12 82 1022 10 SO 14.8
Oggi h: 08:50 coperto Coperto 15 12 82 1022 10 SO 13
Oggi h: 08:20 coperto Coperto 15 12 82 1022 10 SO 14.8
Oggi h: 07:50 molto_nuvoloso Molto Nuvoloso 15 12 82 1022 10 SO 16.7
Oggi h: 07:20 poco_nuvoloso Poco Nuvoloso 15 13 87 1021 10 S/SO 7.4
Oggi h: 06:50 nuvoloso Nuvoloso 14 12 87 1021 10 N 3.7
Oggi h: 06:20 coperto Coperto 14 13 93 1021 10 SO 7.4
Oggi h: 05:50 coperto Coperto 14 13 93 1021 10 N 5.5
Oggi h: 05:20 coperto Coperto 14 13 93 1021 10 N 3.7
Oggi h: 04:50 coperto Coperto 14 13 93 1021 10 N 5.5
Oggi h: 04:20 coperto Coperto 14 13 93 1021 10 N 5.5
Oggi h: 03:50 coperto Coperto 14 12 87 1021 10 O/SO 7.4
Oggi h: 03:20 coperto Coperto 14 13 93 1021 10 N 1.8
Oggi h: 02:50 coperto Coperto 14 13 93 1021 10 N 1.8
Oggi h: 02:20 coperto Coperto 14 13 93 1021 10 N 5.5
Oggi h: 01:50 coperto Coperto 14 13 93 1021 10 N 1.8
Oggi h: 01:20 coperto Coperto 14 12 87 1021 10 N 5.5
Oggi h: 00:50 molto_nuvoloso Molto Nuvoloso 14 13 93 1021 10 N 5.5
Oggi h: 00:20 coperto Coperto 14 13 93 1020 10 O 7.4
Ieri h: 23:50 coperto Coperto 14 13 93 1021 10 O/SO 7.4
Ieri h: 23:20 coperto Coperto 14 13 93 1020 10 N 5.5
Ieri h: 22:50 coperto Coperto 14 13 93 1020 10 O 13
Ieri h: 22:20 coperto Coperto 14 13 93 1019 10 O/SO 37
Ieri h: 21:50 coperto Coperto 14 13 93 1019 8 O/SO 37
Ieri h: 21:20 coperto Coperto 19 11 59 1018 10 SO 33.3
Ieri h: 20:50 coperto Coperto 21 14 64 1015 10 N 7.4
Ieri h: 20:20 coperto Coperto 21 14 64 0 10 N/NO 7.4
Ieri h: 19:50 molto_nuvoloso Molto Nuvoloso 22 13 56 0 1 N 1.8